sensor_id;sensor_type;location;lat;lon;timestamp;temperature;humidity
56076;DHT22;41951;49.022;12.066;2023-12-04T00:00:01;-6.50;99.90
56076;DHT22;41951;49.022;12.066;2023-12-04T00:02:27;-6.40;99.90
56076;DHT22;41951;49.022;12.066;2023-12-04T00:04:53;-6.40;99.90
56076;DHT22;41951;49.022;12.066;2023-12-04T00:07:18;-6.40;99.90
56076;DHT22;41951;49.022;12.066;2023-12-04T00:09:44;-6.40;99.90
56076;DHT22;41951;49.022;12.066;2023-12-04T00:12:09;-6.40;99.90
56076;DHT22;41951;49.022;12.066;2023-12-04T00:14:35;-6.40;99.90
56076;DHT22;41951;49.022;12.066;2023-12-04T00:17:00;-6.40;99.90
56076;DHT22;41951;49.022;12.066;2023-12-04T00:19:26;-6.40;99.90
56076;DHT22;41951;49.022;12.066;2023-12-04T00:21:51;-6.40;99.90
56076;DHT22;41951;49.022;12.066;2023-12-04T00:24:17;-6.40;99.90
56076;DHT22;41951;49.022;12.066;2023-12-04T00:26:43;-6.40;99.90
56076;DHT22;41951;49.022;12.066;2023-12-04T00:29:08;-6.40;99.90
56076;DHT22;41951;49.022;12.066;2023-12-04T00:31:34;-6.50;99.90
56076;DHT22;41951;49.022;12.066;2023-12-04T00:34:00;-6.50;99.90
56076;DHT22;41951;49.022;12.066;2023-12-04T00:36:25;-6.50;99.90
56076;DHT22;41951;49.022;12.066;2023-12-04T00:38:51;-6.50;99.90
56076;DHT22;41951;49.022;12.066;2023-12-04T00:41:17;-6.50;99.90
56076;DHT22;41951;49.022;12.066;2023-12-04T00:43:42;-6.60;99.90
56076;DHT22;41951;49.022;12.066;2023-12-04T00:46:08;-6.50;99.90
56076;DHT22;41951;49.022;12.066;2023-12-04T00:48:34;-6.60;99.90
56076;DHT22;41951;49.022;12.066;2023-12-04T00:50:59;-6.60;99.90
56076;DHT22;41951;49.022;12.066;2023-12-04T00:53:25;-6.50;99.90
56076;DHT22;41951;49.022;12.066;2023-12-04T00:55:50;-6.60;99.90
56076;DHT22;41951;49.022;12.066;2023-12-04T00:58:16;-6.70;99.90
56076;DHT22;41951;49.022;12.066;2023-12-04T01:00:41;-6.60;99.90
56076;DHT22;41951;49.022;12.066;2023-12-04T01:03:07;-6.60;99.90
56076;DHT22;41951;49.022;12.066;2023-12-04T01:05:32;-6.60;99.90
56076;DHT22;41951;49.022;12.066;2023-12-04T01:07:58;-6.60;99.90
56076;DHT22;41951;49.022;12.066;2023-12-04T01:10:23;-6.70;99.90
56076;DHT22;41951;49.022;12.066;2023-12-04T01:12:49;-6.70;99.90
56076;DHT22;41951;49.022;12.066;2023-12-04T01:15:14;-5.30;99.90
56076;DHT22;41951;49.022;12.066;2023-12-04T01:17:40;-6.70;99.90
56076;DHT22;41951;49.022;12.066;2023-12-04T01:20:06;-6.80;99.90
56076;DHT22;41951;49.022;12.066;2023-12-04T01:22:32;-6.80;99.90
56076;DHT22;41951;49.022;12.066;2023-12-04T01:24:58;-6.90;99.90
56076;DHT22;41951;49.022;12.066;2023-12-04T01:27:23;-6.90;99.90
56076;DHT22;41951;49.022;12.066;2023-12-04T01:29:49;-6.90;99.90
56076;DHT22;41951;49.022;12.066;2023-12-04T01:32:14;-7.00;99.90
56076;DHT22;41951;49.022;12.066;2023-12-04T01:34:40;-6.90;99.90
56076;DHT22;41951;49.022;12.066;2023-12-04T01:37:05;-6.90;99.90
56076;DHT22;41951;49.022;12.066;2023-12-04T01:39:31;-7.00;99.90
56076;DHT22;41951;49.022;12.066;2023-12-04T01:41:56;-6.90;99.90
56076;DHT22;41951;49.022;12.066;2023-12-04T01:44:22;-6.90;99.90
56076;DHT22;41951;49.022;12.066;2023-12-04T01:46:48;-6.90;99.90
56076;DHT22;41951;49.022;12.066;2023-12-04T01:49:14;-6.90;99.90
56076;DHT22;41951;49.022;12.066;2023-12-04T01:51:40;-6.90;99.90
56076;DHT22;41951;49.022;12.066;2023-12-04T01:54:06;-7.00;99.90
56076;DHT22;41951;49.022;12.066;2023-12-04T01:56:33;-6.90;99.90
56076;DHT22;41951;49.022;12.066;2023-12-04T01:58:59;-6.90;99.90
56076;DHT22;41951;49.022;12.066;2023-12-04T02:01:26;-6.80;99.90
56076;DHT22;41951;49.022;12.066;2023-12-04T02:03:52;-6.80;99.90
56076;DHT22;41951;49.022;12.066;2023-12-04T02:06:17;-6.80;99.90
56076;DHT22;41951;49.022;12.066;2023-12-04T02:08:46;-6.80;99.90
56076;DHT22;41951;49.022;12.066;2023-12-04T02:11:12;-6.80;99.90
56076;DHT22;41951;49.022;12.066;2023-12-04T02:13:37;-6.80;99.90
56076;DHT22;41951;49.022;12.066;2023-12-04T02:16:04;-6.80;99.90
56076;DHT22;41951;49.022;12.066;2023-12-04T02:18:34;-6.90;99.90
56076;DHT22;41951;49.022;12.066;2023-12-04T02:21:03;-6.90;99.90
56076;DHT22;41951;49.022;12.066;2023-12-04T02:23:28;-6.90;99.90
56076;DHT22;41951;49.022;12.066;2023-12-04T02:26:01;-6.90;99.90
56076;DHT22;41951;49.022;12.066;2023-12-04T02:28:36;-6.90;99.90
56076;DHT22;41951;49.022;12.066;2023-12-04T02:31:04;-7.00;99.90
56076;DHT22;41951;49.022;12.066;2023-12-04T02:33:31;-7.00;99.90
56076;DHT22;41951;49.022;12.066;2023-12-04T02:35:59;-7.00;99.90
56076;DHT22;41951;49.022;12.066;2023-12-04T02:38:26;-7.10;99.90
56076;DHT22;41951;49.022;12.066;2023-12-04T02:40:52;-7.10;99.90
56076;DHT22;41951;49.022;12.066;2023-12-04T02:43:18;-7.10;99.90
56076;DHT22;41951;49.022;12.066;2023-12-04T02:45:43;-7.10;99.90
56076;DHT22;41951;49.022;12.066;2023-12-04T02:48:09;-7.10;99.90
56076;DHT22;41951;49.022;12.066;2023-12-04T02:50:35;-7.00;99.90
56076;DHT22;41951;49.022;12.066;2023-12-04T02:53:01;-7.00;99.90
56076;DHT22;41951;49.022;12.066;2023-12-04T02:55:26;-7.00;99.90
56076;DHT22;41951;49.022;12.066;2023-12-04T02:57:52;-7.00;99.90
56076;DHT22;41951;49.022;12.066;2023-12-04T03:00:18;-7.00;99.90
56076;DHT22;41951;49.022;12.066;2023-12-04T03:02:43;-7.00;99.90
56076;DHT22;41951;49.022;12.066;2023-12-04T03:05:09;-7.10;99.90
56076;DHT22;41951;49.022;12.066;2023-12-04T03:07:34;-7.10;99.90
56076;DHT22;41951;49.022;12.066;2023-12-04T03:10:00;-7.10;99.90
56076;DHT22;41951;49.022;12.066;2023-12-04T03:12:26;-7.20;99.90
56076;DHT22;41951;49.022;12.066;2023-12-04T03:14:51;-7.20;99.90
56076;DHT22;41951;49.022;12.066;2023-12-04T03:17:17;-7.20;99.90
56076;DHT22;41951;49.022;12.066;2023-12-04T03:19:42;-7.10;99.90
56076;DHT22;41951;49.022;12.066;2023-12-04T03:22:08;-7.10;99.90
56076;DHT22;41951;49.022;12.066;2023-12-04T03:24:33;-7.00;99.90
56076;DHT22;41951;49.022;12.066;2023-12-04T03:26:59;-7.10;99.90
56076;DHT22;41951;49.022;12.066;2023-12-04T03:29:24;-7.10;99.90
56076;DHT22;41951;49.022;12.066;2023-12-04T03:31:50;-7.10;99.90
56076;DHT22;41951;49.022;12.066;2023-12-04T03:34:15;-7.00;99.90
56076;DHT22;41951;49.022;12.066;2023-12-04T03:36:41;-7.00;99.90
56076;DHT22;41951;49.022;12.066;2023-12-04T03:39:06;-6.90;99.90
56076;DHT22;41951;49.022;12.066;2023-12-04T03:41:32;-7.00;99.90
56076;DHT22;41951;49.022;12.066;2023-12-04T03:43:57;-7.00;99.90
56076;DHT22;41951;49.022;12.066;2023-12-04T03:46:23;-7.00;99.90
56076;DHT22;41951;49.022;12.066;2023-12-04T03:48:48;-7.00;99.90
56076;DHT22;41951;49.022;12.066;2023-12-04T03:51:14;-7.10;99.90
56076;DHT22;41951;49.022;12.066;2023-12-04T03:53:39;-7.00;99.90
56076;DHT22;41951;49.022;12.066;2023-12-04T03:56:05;-7.10;99.90
56076;DHT22;41951;49.022;12.066;2023-12-04T03:58:32;-7.10;99.90
56076;DHT22;41951;49.022;12.066;2023-12-04T04:00:57;-7.10;99.90
56076;DHT22;41951;49.022;12.066;2023-12-04T04:03:23;-7.10;99.90
56076;DHT22;41951;49.022;12.066;2023-12-04T04:05:48;-7.10;99.90
56076;DHT22;41951;49.022;12.066;2023-12-04T04:08:14;-7.20;99.90
56076;DHT22;41951;49.022;12.066;2023-12-04T04:10:39;-7.10;99.90
56076;DHT22;41951;49.022;12.066;2023-12-04T04:13:05;-7.10;99.90
56076;DHT22;41951;49.022;12.066;2023-12-04T04:15:30;-7.10;99.90
56076;DHT22;41951;49.022;12.066;2023-12-04T04:17:56;-7.10;99.90
56076;DHT22;41951;49.022;12.066;2023-12-04T04:20:21;-7.20;99.90
56076;DHT22;41951;49.022;12.066;2023-12-04T04:22:50;-7.10;99.90
56076;DHT22;41951;49.022;12.066;2023-12-04T04:25:15;-7.10;99.90
56076;DHT22;41951;49.022;12.066;2023-12-04T04:27:41;-7.00;99.90
56076;DHT22;41951;49.022;12.066;2023-12-04T04:30:07;-7.00;99.90
56076;DHT22;41951;49.022;12.066;2023-12-04T04:32:33;-7.00;99.90
56076;DHT22;41951;49.022;12.066;2023-12-04T04:34:59;-6.90;99.90
56076;DHT22;41951;49.022;12.066;2023-12-04T04:37:24;-7.00;99.90
56076;DHT22;41951;49.022;12.066;2023-12-04T04:39:50;-6.90;99.90
56076;DHT22;41951;49.022;12.066;2023-12-04T04:42:15;-6.80;99.90
56076;DHT22;41951;49.022;12.066;2023-12-04T04:44:41;-6.80;99.90
56076;DHT22;41951;49.022;12.066;2023-12-04T04:47:06;-6.80;99.90
56076;DHT22;41951;49.022;12.066;2023-12-04T04:49:32;-6.90;99.90
56076;DHT22;41951;49.022;12.066;2023-12-04T04:51:58;-6.90;99.90
56076;DHT22;41951;49.022;12.066;2023-12-04T04:54:24;-6.80;99.90
56076;DHT22;41951;49.022;12.066;2023-12-04T04:56:49;-6.90;99.90
56076;DHT22;41951;49.022;12.066;2023-12-04T04:59:15;-6.90;99.90
56076;DHT22;41951;49.022;12.066;2023-12-04T05:01:40;-6.90;99.90
56076;DHT22;41951;49.022;12.066;2023-12-04T05:04:06;-6.90;99.90
56076;DHT22;41951;49.022;12.066;2023-12-04T05:06:32;-6.90;99.90
56076;DHT22;41951;49.022;12.066;2023-12-04T05:08:57;-6.80;99.90
56076;DHT22;41951;49.022;12.066;2023-12-04T05:11:23;-6.80;99.90
56076;DHT22;41951;49.022;12.066;2023-12-04T05:13:49;-6.80;99.90
56076;DHT22;41951;49.022;12.066;2023-12-04T05:16:14;-6.80;99.90
56076;DHT22;41951;49.022;12.066;2023-12-04T05:18:41;-6.80;99.90
56076;DHT22;41951;49.022;12.066;2023-12-04T05:21:10;-6.70;99.90
56076;DHT22;41951;49.022;12.066;2023-12-04T05:23:36;-6.70;99.90
56076;DHT22;41951;49.022;12.066;2023-12-04T05:26:02;-6.80;99.90
56076;DHT22;41951;49.022;12.066;2023-12-04T05:28:28;-6.80;99.90
56076;DHT22;41951;49.022;12.066;2023-12-04T05:30:54;-6.80;99.90
56076;DHT22;41951;49.022;12.066;2023-12-04T05:33:19;-6.80;99.90
56076;DHT22;41951;49.022;12.066;2023-12-04T05:35:47;-6.80;99.90
56076;DHT22;41951;49.022;12.066;2023-12-04T05:38:13;-6.80;99.90
56076;DHT22;41951;49.022;12.066;2023-12-04T05:40:39;-6.70;99.90
56076;DHT22;41951;49.022;12.066;2023-12-04T05:43:04;-6.70;99.90
56076;DHT22;41951;49.022;12.066;2023-12-04T05:45:30;-6.80;99.90
56076;DHT22;41951;49.022;12.066;2023-12-04T05:47:55;-6.70;99.90
56076;DHT22;41951;49.022;12.066;2023-12-04T05:50:21;-6.80;99.90
56076;DHT22;41951;49.022;12.066;2023-12-04T05:52:47;-6.80;99.90
56076;DHT22;41951;49.022;12.066;2023-12-04T05:55:12;-6.80;99.90
56076;DHT22;41951;49.022;12.066;2023-12-04T05:57:39;-6.90;99.90
56076;DHT22;41951;49.022;12.066;2023-12-04T06:00:06;-6.80;99.90
56076;DHT22;41951;49.022;12.066;2023-12-04T06:02:43;-6.90;99.90
56076;DHT22;41951;49.022;12.066;2023-12-04T06:05:10;-6.90;99.90
56076;DHT22;41951;49.022;12.066;2023-12-04T06:07:36;-6.80;99.90
56076;DHT22;41951;49.022;12.066;2023-12-04T06:10:02;-6.80;99.90
56076;DHT22;41951;49.022;12.066;2023-12-04T06:12:31;-6.80;99.90
56076;DHT22;41951;49.022;12.066;2023-12-04T06:14:57;-6.80;99.90
56076;DHT22;41951;49.022;12.066;2023-12-04T06:17:23;-6.80;99.90
56076;DHT22;41951;49.022;12.066;2023-12-04T06:19:49;-6.80;99.90
56076;DHT22;41951;49.022;12.066;2023-12-04T06:22:14;-5.90;99.90
56076;DHT22;41951;49.022;12.066;2023-12-04T06:24:42;-6.70;99.90
56076;DHT22;41951;49.022;12.066;2023-12-04T06:27:10;-6.70;99.90
56076;DHT22;41951;49.022;12.066;2023-12-04T06:29:38;-6.80;99.90
56076;DHT22;41951;49.022;12.066;2023-12-04T06:32:04;-6.90;99.90
56076;DHT22;41951;49.022;12.066;2023-12-04T06:34:30;-6.90;99.90
56076;DHT22;41951;49.022;12.066;2023-12-04T06:36:56;-7.00;99.90
56076;DHT22;41951;49.022;12.066;2023-12-04T06:39:22;-7.10;99.90
56076;DHT22;41951;49.022;12.066;2023-12-04T06:41:49;-7.30;99.90
56076;DHT22;41951;49.022;12.066;2023-12-04T06:44:14;-7.40;99.90
56076;DHT22;41951;49.022;12.066;2023-12-04T06:46:41;-7.40;99.90
56076;DHT22;41951;49.022;12.066;2023-12-04T06:49:09;-7.50;99.90
56076;DHT22;41951;49.022;12.066;2023-12-04T06:51:36;-7.50;99.90
56076;DHT22;41951;49.022;12.066;2023-12-04T06:54:01;-7.40;99.90
56076;DHT22;41951;49.022;12.066;2023-12-04T06:56:27;-7.30;99.90
56076;DHT22;41951;49.022;12.066;2023-12-04T06:58:53;-7.20;99.90
56076;DHT22;41951;49.022;12.066;2023-12-04T07:01:19;-7.10;99.90
56076;DHT22;41951;49.022;12.066;2023-12-04T07:03:44;-7.00;99.90
56076;DHT22;41951;49.022;12.066;2023-12-04T07:06:10;-7.00;99.90
56076;DHT22;41951;49.022;12.066;2023-12-04T07:08:35;-7.00;99.90
56076;DHT22;41951;49.022;12.066;2023-12-04T07:11:02;-6.90;99.90
56076;DHT22;41951;49.022;12.066;2023-12-04T07:13:27;-6.90;99.90
56076;DHT22;41951;49.022;12.066;2023-12-04T07:15:53;-6.80;99.90
56076;DHT22;41951;49.022;12.066;2023-12-04T07:18:18;-6.80;99.90
56076;DHT22;41951;49.022;12.066;2023-12-04T07:20:44;-6.80;99.90
56076;DHT22;41951;49.022;12.066;2023-12-04T07:23:09;-6.70;99.90
56076;DHT22;41951;49.022;12.066;2023-12-04T07:25:35;-6.70;99.90
56076;DHT22;41951;49.022;12.066;2023-12-04T07:28:00;-6.70;99.90
56076;DHT22;41951;49.022;12.066;2023-12-04T07:30:26;-6.70;99.90
56076;DHT22;41951;49.022;12.066;2023-12-04T07:32:52;-6.70;99.90
56076;DHT22;41951;49.022;12.066;2023-12-04T07:35:19;-6.50;99.90
56076;DHT22;41951;49.022;12.066;2023-12-04T07:37:44;-6.60;99.90
56076;DHT22;41951;49.022;12.066;2023-12-04T07:40:10;-6.60;99.90
56076;DHT22;41951;49.022;12.066;2023-12-04T07:42:36;-6.50;99.90
56076;DHT22;41951;49.022;12.066;2023-12-04T07:45:03;-6.40;99.90
56076;DHT22;41951;49.022;12.066;2023-12-04T07:47:29;-6.50;99.90
56076;DHT22;41951;49.022;12.066;2023-12-04T07:49:54;-6.60;99.90
56076;DHT22;41951;49.022;12.066;2023-12-04T07:52:20;-6.50;99.90
56076;DHT22;41951;49.022;12.066;2023-12-04T07:54:45;-6.50;99.90
56076;DHT22;41951;49.022;12.066;2023-12-04T07:57:11;-6.40;99.90
56076;DHT22;41951;49.022;12.066;2023-12-04T07:59:36;-6.50;99.90
56076;DHT22;41951;49.022;12.066;2023-12-04T08:02:02;-6.50;99.90
56076;DHT22;41951;49.022;12.066;2023-12-04T08:04:27;-6.40;99.90
56076;DHT22;41951;49.022;12.066;2023-12-04T08:06:53;-6.40;99.90
56076;DHT22;41951;49.022;12.066;2023-12-04T08:09:18;-6.40;99.90
56076;DHT22;41951;49.022;12.066;2023-12-04T08:11:44;-6.40;99.90
56076;DHT22;41951;49.022;12.066;2023-12-04T08:14:10;-6.30;99.90
56076;DHT22;41951;49.022;12.066;2023-12-04T08:16:36;-6.30;99.90
56076;DHT22;41951;49.022;12.066;2023-12-04T08:19:01;-6.20;99.90
56076;DHT22;41951;49.022;12.066;2023-12-04T08:21:27;-6.10;99.90
56076;DHT22;41951;49.022;12.066;2023-12-04T08:23:52;-6.10;99.90
56076;DHT22;41951;49.022;12.066;2023-12-04T08:26:24;-6.20;99.90
56076;DHT22;41951;49.022;12.066;2023-12-04T08:28:51;-6.20;99.90
56076;DHT22;41951;49.022;12.066;2023-12-04T08:31:17;-6.20;99.90
56076;DHT22;41951;49.022;12.066;2023-12-04T08:33:42;-6.20;99.90
56076;DHT22;41951;49.022;12.066;2023-12-04T08:36:08;-6.10;99.90
56076;DHT22;41951;49.022;12.066;2023-12-04T08:38:34;-6.10;99.90
56076;DHT22;41951;49.022;12.066;2023-12-04T08:41:00;-5.90;99.90
56076;DHT22;41951;49.022;12.066;2023-12-04T08:43:25;-5.90;99.90
56076;DHT22;41951;49.022;12.066;2023-12-04T08:45:51;-5.80;99.90
56076;DHT22;41951;49.022;12.066;2023-12-04T08:48:16;-5.60;99.90
56076;DHT22;41951;49.022;12.066;2023-12-04T08:50:42;-5.60;99.90
56076;DHT22;41951;49.022;12.066;2023-12-04T08:53:07;-5.50;99.90
56076;DHT22;41951;49.022;12.066;2023-12-04T08:55:33;-5.40;99.90
56076;DHT22;41951;49.022;12.066;2023-12-04T08:57:58;-5.30;99.90
56076;DHT22;41951;49.022;12.066;2023-12-04T09:00:24;-5.30;99.90
56076;DHT22;41951;49.022;12.066;2023-12-04T09:02:49;-5.30;99.90
56076;DHT22;41951;49.022;12.066;2023-12-04T09:05:15;-5.20;99.90
56076;DHT22;41951;49.022;12.066;2023-12-04T09:07:41;-5.20;99.90
56076;DHT22;41951;49.022;12.066;2023-12-04T09:10:07;-5.10;99.90
56076;DHT22;41951;49.022;12.066;2023-12-04T09:12:32;-5.10;99.90
56076;DHT22;41951;49.022;12.066;2023-12-04T09:15:00;-5.20;99.90
56076;DHT22;41951;49.022;12.066;2023-12-04T09:17:27;-5.20;99.90
56076;DHT22;41951;49.022;12.066;2023-12-04T09:19:52;-5.30;99.90
56076;DHT22;41951;49.022;12.066;2023-12-04T09:22:18;-5.20;99.90
56076;DHT22;41951;49.022;12.066;2023-12-04T09:24:44;-5.10;99.90
56076;DHT22;41951;49.022;12.066;2023-12-04T09:27:10;-5.00;99.90
56076;DHT22;41951;49.022;12.066;2023-12-04T09:29:35;-4.90;99.90
56076;DHT22;41951;49.022;12.066;2023-12-04T09:32:01;-4.80;99.90
56076;DHT22;41951;49.022;12.066;2023-12-04T09:34:26;-4.70;99.90
56076;DHT22;41951;49.022;12.066;2023-12-04T09:36:52;-4.60;99.90
56076;DHT22;41951;49.022;12.066;2023-12-04T09:39:18;-4.40;99.90
56076;DHT22;41951;49.022;12.066;2023-12-04T09:41:44;-4.30;99.90
56076;DHT22;41951;49.022;12.066;2023-12-04T09:44:10;-4.20;99.90
56076;DHT22;41951;49.022;12.066;2023-12-04T09:46:35;-4.10;99.90
56076;DHT22;41951;49.022;12.066;2023-12-04T09:49:01;-4.00;99.90
56076;DHT22;41951;49.022;12.066;2023-12-04T09:51:28;-3.90;99.90
56076;DHT22;41951;49.022;12.066;2023-12-04T09:53:54;-3.70;99.90
56076;DHT22;41951;49.022;12.066;2023-12-04T09:56:23;-3.80;99.90
56076;DHT22;41951;49.022;12.066;2023-12-04T09:58:53;-3.90;99.90
56076;DHT22;41951;49.022;12.066;2023-12-04T10:01:23;-3.90;99.90
56076;DHT22;41951;49.022;12.066;2023-12-04T10:03:49;-3.80;99.90
56076;DHT22;41951;49.022;12.066;2023-12-04T10:06:15;-3.80;99.90
56076;DHT22;41951;49.022;12.066;2023-12-04T10:08:44;-3.70;99.90
56076;DHT22;41951;49.022;12.066;2023-12-04T10:11:10;-3.70;99.90
56076;DHT22;41951;49.022;12.066;2023-12-04T10:13:36;-3.60;99.90
56076;DHT22;41951;49.022;12.066;2023-12-04T10:16:02;-3.50;99.90
56076;DHT22;41951;49.022;12.066;2023-12-04T10:18:29;-3.60;99.90
56076;DHT22;41951;49.022;12.066;2023-12-04T10:20:56;-3.50;99.90
56076;DHT22;41951;49.022;12.066;2023-12-04T10:23:22;-3.50;99.90
56076;DHT22;41951;49.022;12.066;2023-12-04T10:25:51;-3.50;99.90
56076;DHT22;41951;49.022;12.066;2023-12-04T10:28:17;-3.30;99.90
56076;DHT22;41951;49.022;12.066;2023-12-04T10:30:45;-3.30;99.90
56076;DHT22;41951;49.022;12.066;2023-12-04T10:33:12;-3.20;99.90
56076;DHT22;41951;49.022;12.066;2023-12-04T10:35:39;-3.20;99.90
56076;DHT22;41951;49.022;12.066;2023-12-04T10:38:06;-3.10;99.90
56076;DHT22;41951;49.022;12.066;2023-12-04T10:40:33;-3.10;99.90
56076;DHT22;41951;49.022;12.066;2023-12-04T10:45:34;-3.10;99.90
56076;DHT22;41951;49.022;12.066;2023-12-04T10:48:01;-3.20;99.90
56076;DHT22;41951;49.022;12.066;2023-12-04T10:50:34;-3.10;99.90
56076;DHT22;41951;49.022;12.066;2023-12-04T10:53:18;-3.10;99.90
56076;DHT22;41951;49.022;12.066;2023-12-04T10:55:45;-3.00;99.90
56076;DHT22;41951;49.022;12.066;2023-12-04T10:58:12;-3.00;99.90
56076;DHT22;41951;49.022;12.066;2023-12-04T11:00:44;-3.10;99.90
56076;DHT22;41951;49.022;12.066;2023-12-04T11:03:40;-1.90;99.90
56076;DHT22;41951;49.022;12.066;2023-12-04T11:06:00;-3.10;99.90
56076;DHT22;41951;49.022;12.066;2023-12-04T11:08:29;-3.10;99.90
56076;DHT22;41951;49.022;12.066;2023-12-04T11:13:28;-3.10;99.90
56076;DHT22;41951;49.022;12.066;2023-12-04T11:16:01;-3.10;99.90
56076;DHT22;41951;49.022;12.066;2023-12-04T11:18:31;-3.10;99.90
56076;DHT22;41951;49.022;12.066;2023-12-04T11:21:03;-3.20;99.90
56076;DHT22;41951;49.022;12.066;2023-12-04T11:23:29;-3.10;99.90
56076;DHT22;41951;49.022;12.066;2023-12-04T11:25:57;-3.20;99.90
56076;DHT22;41951;49.022;12.066;2023-12-04T11:28:23;-3.20;99.90
56076;DHT22;41951;49.022;12.066;2023-12-04T11:30:50;-3.10;99.90
56076;DHT22;41951;49.022;12.066;2023-12-04T11:33:17;-3.00;99.90
56076;DHT22;41951;49.022;12.066;2023-12-04T11:35:44;-3.00;99.90
56076;DHT22;41951;49.022;12.066;2023-12-04T11:38:13;-2.90;99.90
56076;DHT22;41951;49.022;12.066;2023-12-04T11:40:40;-2.90;99.90
56076;DHT22;41951;49.022;12.066;2023-12-04T11:43:26;-2.90;99.90
56076;DHT22;41951;49.022;12.066;2023-12-04T11:45:53;-2.90;99.90
56076;DHT22;41951;49.022;12.066;2023-12-04T11:48:25;-2.90;99.90
56076;DHT22;41951;49.022;12.066;2023-12-04T11:50:50;-2.90;99.90
56076;DHT22;41951;49.022;12.066;2023-12-04T11:53:16;-2.80;99.90
56076;DHT22;41951;49.022;12.066;2023-12-04T11:55:42;-2.90;99.90
56076;DHT22;41951;49.022;12.066;2023-12-04T11:58:11;-3.00;99.90
56076;DHT22;41951;49.022;12.066;2023-12-04T12:00:37;-3.00;99.90
56076;DHT22;41951;49.022;12.066;2023-12-04T12:03:07;-3.00;99.90
56076;DHT22;41951;49.022;12.066;2023-12-04T12:05:36;-3.00;99.90
56076;DHT22;41951;49.022;12.066;2023-12-04T12:08:04;-2.90;99.90
56076;DHT22;41951;49.022;12.066;2023-12-04T12:10:31;-2.90;99.90
56076;DHT22;41951;49.022;12.066;2023-12-04T12:12:57;-2.90;99.90
56076;DHT22;41951;49.022;12.066;2023-12-04T12:15:23;-2.90;99.90
56076;DHT22;41951;49.022;12.066;2023-12-04T12:17:49;-2.90;99.90
56076;DHT22;41951;49.022;12.066;2023-12-04T12:20:15;-2.90;99.90
56076;DHT22;41951;49.022;12.066;2023-12-04T12:22:41;-2.90;99.90
56076;DHT22;41951;49.022;12.066;2023-12-04T12:25:10;-2.90;99.90
56076;DHT22;41951;49.022;12.066;2023-12-04T12:27:36;-2.90;99.90
56076;DHT22;41951;49.022;12.066;2023-12-04T12:30:02;-2.90;99.90
56076;DHT22;41951;49.022;12.066;2023-12-04T12:32:30;-2.90;99.90
56076;DHT22;41951;49.022;12.066;2023-12-04T12:34:56;-2.90;99.90
56076;DHT22;41951;49.022;12.066;2023-12-04T12:37:22;-2.90;99.90
56076;DHT22;41951;49.022;12.066;2023-12-04T12:39:48;-2.90;99.90
56076;DHT22;41951;49.022;12.066;2023-12-04T12:44:49;-2.80;99.90
56076;DHT22;41951;49.022;12.066;2023-12-04T12:47:15;-2.80;99.90
56076;DHT22;41951;49.022;12.066;2023-12-04T12:49:41;-2.70;99.90
56076;DHT22;41951;49.022;12.066;2023-12-04T12:52:06;-2.70;99.90
56076;DHT22;41951;49.022;12.066;2023-12-04T12:54:37;-2.70;99.90
56076;DHT22;41951;49.022;12.066;2023-12-04T12:57:02;-2.70;99.90
56076;DHT22;41951;49.022;12.066;2023-12-04T12:59:28;-2.60;99.90
56076;DHT22;41951;49.022;12.066;2023-12-04T13:01:54;-2.70;99.90
56076;DHT22;41951;49.022;12.066;2023-12-04T13:04:22;-2.60;99.90
56076;DHT22;41951;49.022;12.066;2023-12-04T13:06:48;-2.60;99.90
56076;DHT22;41951;49.022;12.066;2023-12-04T13:09:13;-2.60;99.90
56076;DHT22;41951;49.022;12.066;2023-12-04T13:11:45;-2.50;99.90
56076;DHT22;41951;49.022;12.066;2023-12-04T13:14:10;-2.50;99.90
56076;DHT22;41951;49.022;12.066;2023-12-04T13:16:36;-2.40;99.90
56076;DHT22;41951;49.022;12.066;2023-12-04T13:19:01;-2.40;99.90
56076;DHT22;41951;49.022;12.066;2023-12-04T13:21:27;-2.40;99.90
56076;DHT22;41951;49.022;12.066;2023-12-04T13:23:53;-2.30;99.90
56076;DHT22;41951;49.022;12.066;2023-12-04T13:26:19;-2.30;99.90
56076;DHT22;41951;49.022;12.066;2023-12-04T13:28:45;-2.30;99.90
56076;DHT22;41951;49.022;12.066;2023-12-04T13:31:11;-2.30;99.90
56076;DHT22;41951;49.022;12.066;2023-12-04T13:33:36;-2.40;99.90
56076;DHT22;41951;49.022;12.066;2023-12-04T13:36:02;-2.40;99.90
56076;DHT22;41951;49.022;12.066;2023-12-04T13:38:29;-2.40;99.90
56076;DHT22;41951;49.022;12.066;2023-12-04T13:40:55;-2.40;99.90
56076;DHT22;41951;49.022;12.066;2023-12-04T13:43:34;-2.40;99.90
56076;DHT22;41951;49.022;12.066;2023-12-04T13:46:18;-2.40;99.90
56076;DHT22;41951;49.022;12.066;2023-12-04T13:48:44;-2.40;99.90
56076;DHT22;41951;49.022;12.066;2023-12-04T13:51:10;-2.40;99.90
56076;DHT22;41951;49.022;12.066;2023-12-04T13:53:37;-2.40;99.90
56076;DHT22;41951;49.022;12.066;2023-12-04T13:56:15;-2.40;99.90
56076;DHT22;41951;49.022;12.066;2023-12-04T13:58:47;-2.40;99.90
56076;DHT22;41951;49.022;12.066;2023-12-04T14:01:19;-2.30;99.90
56076;DHT22;41951;49.022;12.066;2023-12-04T14:03:48;-2.40;99.90
56076;DHT22;41951;49.022;12.066;2023-12-04T14:06:14;-2.40;99.90
56076;DHT22;41951;49.022;12.066;2023-12-04T14:08:41;-2.30;99.90
56076;DHT22;41951;49.022;12.066;2023-12-04T14:11:07;-2.20;99.90
56076;DHT22;41951;49.022;12.066;2023-12-04T14:13:33;-2.20;99.90
56076;DHT22;41951;49.022;12.066;2023-12-04T14:15:59;-2.20;99.90
56076;DHT22;41951;49.022;12.066;2023-12-04T14:18:24;-2.30;99.90
56076;DHT22;41951;49.022;12.066;2023-12-04T14:20:51;-2.30;99.90
56076;DHT22;41951;49.022;12.066;2023-12-04T14:23:17;-2.30;99.90
56076;DHT22;41951;49.022;12.066;2023-12-04T14:25:44;-2.40;99.90
56076;DHT22;41951;49.022;12.066;2023-12-04T14:28:10;-2.40;99.90
56076;DHT22;41951;49.022;12.066;2023-12-04T14:30:35;-2.40;99.90
56076;DHT22;41951;49.022;12.066;2023-12-04T14:33:01;-2.40;99.90
56076;DHT22;41951;49.022;12.066;2023-12-04T14:35:26;-2.50;99.90
56076;DHT22;41951;49.022;12.066;2023-12-04T14:37:52;-2.50;99.90
56076;DHT22;41951;49.022;12.066;2023-12-04T14:40:18;-2.50;99.90
56076;DHT22;41951;49.022;12.066;2023-12-04T14:42:45;-2.50;99.90
56076;DHT22;41951;49.022;12.066;2023-12-04T14:45:11;-2.50;99.90
56076;DHT22;41951;49.022;12.066;2023-12-04T14:47:37;-2.60;99.90
56076;DHT22;41951;49.022;12.066;2023-12-04T14:50:04;-2.60;99.90
56076;DHT22;41951;49.022;12.066;2023-12-04T14:52:30;-2.60;99.90
56076;DHT22;41951;49.022;12.066;2023-12-04T14:54:57;-2.70;99.90
56076;DHT22;41951;49.022;12.066;2023-12-04T14:57:35;-2.70;99.90
56076;DHT22;41951;49.022;12.066;2023-12-04T15:00:10;-2.70;99.90
56076;DHT22;41951;49.022;12.066;2023-12-04T15:02:54;-2.70;99.90
56076;DHT22;41951;49.022;12.066;2023-12-04T15:05:39;-2.70;99.90
56076;DHT22;41951;49.022;12.066;2023-12-04T15:08:26;-2.70;99.90
56076;DHT22;41951;49.022;12.066;2023-12-04T15:11:10;-2.70;99.90
56076;DHT22;41951;49.022;12.066;2023-12-04T15:13:50;-2.80;99.90
56076;DHT22;41951;49.022;12.066;2023-12-04T15:16:22;-2.80;99.90
56076;DHT22;41951;49.022;12.066;2023-12-04T15:19:12;-2.80;99.90